Terminal Aerodrome Forecast
Issued by NWS

Home | Current Version | Previous Version | Text Only | Print | Product List | Glossary On
Versions: 1 2 3 4 5 6 7 8 9 10 11 12 13 14
000
FTUS45 KABQ 192330
TAFLVS
TAF
KLVS 192330Z 2000/2024 25015G25KT P6SM SCT250
      TEMPO 2000/2002 26011KT
     FM200200 26010G16KT P6SM SCT250
     FM201700 23010G18KT P6SM SKC=

USA.gov is the U.S. government's official web portal to all federal, state and local government web resources and services.